createdAt,value
2016-12-06T00:00:14.803Z,2.36
2016-12-06T00:01:14.806Z,2.26
2016-12-06T00:02:14.815Z,2.28
2016-12-06T00:03:14.827Z,2.31
2016-12-06T00:04:14.833Z,2.31
2016-12-06T00:05:14.850Z,2.39
2016-12-06T00:06:14.855Z,2.35
2016-12-06T00:07:14.859Z,2.39
2016-12-06T00:08:14.865Z,2.31
2016-12-06T00:09:14.874Z,2.33
2016-12-06T00:10:14.941Z,2.28
2016-12-06T00:11:14.899Z,2.36
2016-12-06T00:12:14.941Z,2.33
2016-12-06T00:13:14.912Z,2.31
2016-12-06T00:14:15.254Z,2.38
2016-12-06T00:15:14.946Z,2.31
2016-12-06T00:16:14.954Z,2.32
2016-12-06T00:17:14.957Z,2.28
2016-12-06T00:18:14.974Z,2.33
2016-12-06T00:19:14.977Z,2.26
2016-12-06T00:20:15.031Z,2.32
2016-12-06T00:21:14.994Z,2.31
2016-12-06T00:22:14.994Z,2.36
2016-12-06T00:23:15.007Z,2.36
2016-12-06T00:24:15.015Z,2.38
2016-12-06T00:25:15.017Z,2.31
2016-12-06T00:26:15.041Z,2.32
2016-12-06T00:27:15.043Z,2.26
2016-12-06T00:28:15.367Z,2.31
2016-12-06T00:29:15.061Z,2.28
2016-12-06T00:30:15.124Z,2.26
2016-12-06T00:31:15.087Z,2.28
2016-12-06T00:32:15.092Z,2.26
2016-12-06T00:33:15.106Z,2.26
2016-12-06T00:34:15.115Z,2.31
2016-12-06T00:35:15.165Z,2.36
2016-12-06T00:36:15.120Z,2.26
2016-12-06T00:37:15.169Z,2.26
2016-12-06T00:38:15.151Z,2.26
2016-12-06T00:39:15.158Z,2.31
2016-12-06T00:40:15.163Z,2.32
2016-12-06T00:41:15.172Z,2.29
2016-12-06T00:42:15.190Z,2.29
2016-12-06T00:43:15.194Z,2.28
2016-12-06T00:44:15.200Z,2.29
2016-12-06T00:45:15.264Z,2.28
2016-12-06T00:46:15.219Z,2.26
2016-12-06T00:47:15.231Z,2.28
2016-12-06T00:48:15.239Z,2.29
2016-12-06T00:49:15.248Z,2.26
2016-12-06T00:50:15.250Z,2.26
2016-12-06T00:51:15.259Z,2.25
2016-12-06T00:52:15.277Z,2.15
2016-12-06T00:53:15.286Z,2.17
2016-12-06T00:54:15.297Z,2.28
2016-12-06T00:55:15.355Z,2.17
2016-12-06T00:56:15.310Z,2.24
2016-12-06T00:57:15.320Z,2.24
2016-12-06T00:58:15.323Z,2.28
2016-12-06T00:59:15.350Z,2.25
2016-12-06T01:00:15.351Z,2.26
2016-12-06T01:01:15.360Z,2.25
2016-12-06T01:02:15.378Z,2.24
2016-12-06T01:03:15.368Z,2.14
2016-12-06T01:04:15.379Z,2.22
2016-12-06T01:05:15.444Z,2.25
2016-12-06T01:06:15.401Z,2.17
2016-12-06T01:07:15.412Z,2.22
2016-12-06T01:08:15.422Z,2.18
2016-12-06T01:09:15.424Z,2.24
2016-12-06T01:10:15.449Z,2.26
2016-12-06T01:11:15.447Z,2.24
2016-12-06T01:12:15.449Z,2.2
2016-12-06T01:13:15.469Z,2.17
2016-12-06T01:14:15.471Z,2.24
2016-12-06T01:15:15.541Z,2.29
2016-12-06T01:16:15.491Z,2.28
2016-12-06T01:17:15.501Z,2.22
2016-12-06T01:18:15.520Z,2.26
2016-12-06T01:19:15.536Z,2.15
2016-12-06T01:20:15.543Z,2.2
2016-12-06T01:21:15.536Z,2.26
2016-12-06T01:22:15.553Z,2.2
2016-12-06T01:23:15.557Z,2.17
2016-12-06T01:24:15.571Z,2.25
2016-12-06T01:25:15.635Z,2.18
2016-12-06T01:26:15.587Z,2.22
2016-12-06T01:27:15.589Z,2.18
2016-12-06T01:28:15.600Z,2.24
2016-12-06T01:29:15.617Z,2.18
2016-12-06T01:30:15.623Z,2.22
2016-12-06T01:31:15.630Z,2.24
2016-12-06T01:32:15.639Z,2.18
2016-12-06T01:33:15.660Z,2.17
2016-12-06T01:34:15.663Z,2.2
2016-12-06T01:35:15.719Z,2.15
2016-12-06T01:36:15.683Z,2.15
2016-12-06T01:37:15.686Z,2.15
2016-12-06T01:38:15.690Z,2.15
2016-12-06T01:39:15.736Z,2.13
2016-12-06T01:40:15.717Z,2.17
2016-12-06T01:41:15.722Z,2.22
2016-12-06T01:42:15.726Z,2.17
2016-12-06T01:43:15.743Z,2.08
2016-12-06T01:44:15.759Z,2.2
2016-12-06T01:45:15.809Z,2.17
2016-12-06T01:46:15.767Z,2.18
2016-12-06T01:47:15.772Z,2.18
2016-12-06T01:48:15.819Z,2.14
2016-12-06T01:49:15.791Z,2.22
2016-12-06T01:50:15.796Z,2.13
2016-12-06T01:51:15.804Z,2.18
2016-12-06T01:52:15.824Z,2.22
2016-12-06T01:53:15.828Z,2.11
2016-12-06T01:54:15.843Z,2.18
2016-12-06T01:55:15.898Z,2.22
2016-12-06T01:56:15.850Z,2.2
2016-12-06T01:57:15.858Z,2.14
2016-12-06T01:58:15.866Z,2.13
2016-12-06T01:59:15.874Z,2.17
2016-12-06T02:00:15.890Z,2.15
2016-12-06T02:01:15.900Z,2.18
2016-12-06T02:02:15.917Z,2.11
2016-12-06T02:03:15.919Z,2.15
2016-12-06T02:04:15.927Z,2.1
2016-12-06T02:05:15.989Z,2.17
2016-12-06T02:06:15.969Z,2.14
2016-12-06T02:07:15.950Z,2.15
2016-12-06T02:08:15.957Z,2.08
2016-12-06T02:09:15.967Z,2.17
2016-12-06T02:10:16.016Z,2.11
2016-12-06T02:11:15.990Z,2.04
2016-12-06T02:12:15.999Z,2.14
2016-12-06T02:13:16.010Z,2.15
2016-12-06T02:14:16.025Z,2.1
2016-12-06T02:15:16.082Z,2.07
2016-12-06T02:16:16.037Z,2.17
2016-12-06T02:17:16.037Z,2.07
2016-12-06T02:18:16.062Z,2.15
2016-12-06T02:19:16.068Z,2.1
2016-12-06T02:20:16.079Z,2.06
2016-12-06T02:21:16.087Z,2.06
2016-12-06T02:22:16.085Z,1.95
2016-12-06T02:23:16.095Z,2.02
2016-12-06T02:24:16.109Z,2.11
2016-12-06T02:25:16.162Z,2.08
2016-12-06T02:26:16.132Z,2.07
2016-12-06T02:27:16.140Z,2.07
2016-12-06T02:28:16.140Z,2.06
2016-12-06T02:29:16.146Z,2.06
2016-12-06T02:30:16.167Z,2.08
2016-12-06T02:31:16.175Z,2.02
2016-12-06T02:32:16.174Z,2.06
2016-12-06T02:33:16.185Z,2
2016-12-06T02:34:16.190Z,2.02
2016-12-06T02:35:16.259Z,2
2016-12-06T02:36:16.215Z,2.1
2016-12-06T02:37:16.230Z,2.04
2016-12-06T02:38:16.237Z,2.08
2016-12-06T02:39:16.241Z,1.99
2016-12-06T02:40:16.256Z,2.06
2016-12-06T02:41:16.257Z,2.06
2016-12-06T02:42:16.263Z,1.99
2016-12-06T02:43:16.271Z,2
2016-12-06T02:44:16.281Z,1.92
2016-12-06T02:45:16.346Z,1.94
2016-12-06T02:46:16.300Z,1.97
2016-12-06T02:47:16.307Z,2.04
2016-12-06T02:48:16.327Z,2.02
2016-12-06T02:49:16.338Z,1.95
2016-12-06T02:50:16.385Z,1.99
2016-12-06T02:51:16.355Z,1.97
2016-12-06T02:52:16.374Z,1.95
2016-12-06T02:53:16.373Z,2.02
2016-12-06T02:54:16.371Z,2.02
2016-12-06T02:55:16.449Z,1.95
2016-12-06T02:56:16.396Z,2.02
2016-12-06T02:57:16.399Z,1.99
2016-12-06T02:58:16.414Z,1.97
2016-12-06T02:59:16.422Z,2
2016-12-06T03:00:16.453Z,1.95
2016-12-06T03:01:16.453Z,1.97
2016-12-06T03:02:16.454Z,1.94
2016-12-06T03:03:16.463Z,2
2016-12-06T03:04:16.460Z,1.91
2016-12-06T03:05:16.534Z,1.89
2016-12-06T03:06:16.489Z,1.94
2016-12-06T03:07:16.493Z,1.92
2016-12-06T03:08:16.499Z,1.91
2016-12-06T03:09:16.524Z,1.89
2016-12-06T03:10:16.533Z,1.88
2016-12-06T03:11:16.568Z,1.94
2016-12-06T03:12:16.541Z,1.89
2016-12-06T03:13:16.552Z,1.91
2016-12-06T03:14:16.554Z,1.94
2016-12-06T03:15:16.623Z,1.95
2016-12-06T03:16:16.576Z,1.92
2016-12-06T03:17:16.585Z,1.94
2016-12-06T03:18:16.601Z,1.78
2016-12-06T03:19:16.609Z,1.87
2016-12-06T03:20:16.612Z,1.91
2016-12-06T03:21:16.624Z,1.92
2016-12-06T03:22:16.633Z,1.91
2016-12-06T03:23:16.668Z,1.8
2016-12-06T03:24:16.643Z,1.85
2016-12-06T03:25:16.715Z,1.8
2016-12-06T03:26:16.665Z,1.8
2016-12-06T03:27:16.672Z,1.76
2016-12-06T03:28:16.679Z,1.78
2016-12-06T03:29:16.699Z,1.89
2016-12-06T03:30:17.017Z,1.8
2016-12-06T03:31:16.718Z,1.8
2016-12-06T03:32:16.714Z,1.81
2016-12-06T03:33:16.728Z,1.8
2016-12-06T03:34:16.735Z,1.77
2016-12-06T03:35:16.741Z,1.8
2016-12-06T03:36:16.745Z,1.85
2016-12-06T03:37:16.761Z,1.85
2016-12-06T03:38:16.766Z,1.8
2016-12-06T03:39:16.803Z,1.8
2016-12-06T03:40:16.836Z,1.78
2016-12-06T03:41:16.807Z,1.81
2016-12-06T03:42:16.806Z,1.85
2016-12-06T03:43:16.813Z,1.85
2016-12-06T03:44:17.138Z,1.78
2016-12-06T03:45:16.835Z,1.85
2016-12-06T03:46:16.841Z,1.84
2016-12-06T03:47:16.845Z,1.85
2016-12-06T03:48:16.857Z,1.8
2016-12-06T03:49:16.873Z,1.78
2016-12-06T03:50:16.935Z,1.73
2016-12-06T03:51:16.883Z,1.77
2016-12-06T03:52:16.899Z,1.76
2016-12-06T03:53:16.910Z,1.7
2016-12-06T03:54:16.910Z,1.76
2016-12-06T03:55:16.929Z,1.74
2016-12-06T03:56:16.933Z,1.81
2016-12-06T03:57:16.939Z,1.76
2016-12-06T03:58:16.942Z,1.76
2016-12-06T03:59:16.962Z,1.67
2016-12-06T04:00:17.020Z,1.77
2016-12-06T04:01:16.977Z,1.73
2016-12-06T04:02:16.982Z,1.76
2016-12-06T04:03:16.987Z,1.71
2016-12-06T04:04:17.006Z,1.74
2016-12-06T04:05:17.013Z,1.74
2016-12-06T04:06:17.012Z,1.74
2016-12-06T04:07:17.355Z,1.77
2016-12-06T04:08:17.039Z,1.74
2016-12-06T04:09:17.048Z,1.8
2016-12-06T04:10:17.105Z,1.73
2016-12-06T04:11:17.060Z,1.78
2016-12-06T04:12:17.077Z,1.71
2016-12-06T04:13:17.086Z,1.71
2016-12-06T04:14:17.083Z,1.71
2016-12-06T04:15:17.100Z,1.76
2016-12-06T04:16:17.113Z,1.74
2016-12-06T04:17:17.121Z,1.76
2016-12-06T04:18:17.128Z,1.81
2016-12-06T04:19:17.137Z,1.74
2016-12-06T04:20:17.200Z,1.68
2016-12-06T04:21:17.154Z,1.8
2016-12-06T04:22:17.154Z,1.74
2016-12-06T04:23:17.170Z,1.74
2016-12-06T04:24:17.186Z,1.77
2016-12-06T04:25:17.191Z,1.74
2016-12-06T04:26:17.201Z,1.76
2016-12-06T04:27:17.210Z,1.71
2016-12-06T04:28:17.208Z,1.78
2016-12-06T04:29:17.223Z,1.77
2016-12-06T04:30:17.293Z,1.78
2016-12-06T04:31:17.241Z,1.77
2016-12-06T04:32:17.253Z,1.74
2016-12-06T04:33:17.259Z,1.71
2016-12-06T04:34:17.261Z,1.74
2016-12-06T04:35:17.284Z,1.78
2016-12-06T04:36:17.285Z,1.71
2016-12-06T04:37:17.287Z,1.74
2016-12-06T04:38:17.308Z,1.8
2016-12-06T04:39:17.316Z,1.77
2016-12-06T04:40:17.693Z,1.74
2016-12-06T04:41:17.332Z,1.78
2016-12-06T04:42:17.343Z,1.74
2016-12-06T04:43:17.345Z,1.66
2016-12-06T04:44:17.350Z,1.8
2016-12-06T04:45:17.358Z,1.68
2016-12-06T04:46:17.367Z,1.84
2016-12-06T04:47:17.380Z,1.87
2016-12-06T04:48:17.706Z,1.85
2016-12-06T04:49:17.395Z,1.8
2016-12-06T04:50:17.461Z,1.78
2016-12-06T04:51:17.421Z,1.8
2016-12-06T04:52:17.432Z,1.85
2016-12-06T04:53:17.438Z,1.81
2016-12-06T04:54:17.440Z,1.81
2016-12-06T04:55:17.449Z,1.8
2016-12-06T04:56:17.457Z,1.78
2016-12-06T04:57:17.474Z,1.73
2016-12-06T04:58:17.801Z,1.85
2016-12-06T04:59:17.494Z,1.87
2016-12-06T05:00:17.552Z,1.91
2016-12-06T05:01:17.505Z,1.89
2016-12-06T05:02:17.514Z,1.91
2016-12-06T05:03:17.528Z,1.78
2016-12-06T05:04:17.539Z,1.92
2016-12-06T05:05:17.540Z,1.8
2016-12-06T05:06:17.555Z,1.94
2016-12-06T05:07:17.564Z,1.91
2016-12-06T05:08:17.563Z,1.88
2016-12-06T05:09:17.579Z,1.92
2016-12-06T05:10:17.641Z,1.91
2016-12-06T05:11:17.593Z,1.99
2016-12-06T05:12:17.604Z,1.94
2016-12-06T05:13:17.604Z,1.99
2016-12-06T05:14:17.628Z,1.91
2016-12-06T05:15:17.632Z,1.99
2016-12-06T05:16:17.641Z,1.95
2016-12-06T05:17:17.645Z,1.99
2016-12-06T05:18:17.654Z,1.94
2016-12-06T05:19:17.663Z,1.99
2016-12-06T05:20:17.720Z,1.91
2016-12-06T05:21:17.677Z,1.95
2016-12-06T05:22:17.689Z,1.99
2016-12-06T05:23:17.694Z,1.99
2016-12-06T05:24:17.707Z,2
2016-12-06T05:25:17.711Z,2.02
2016-12-06T05:26:17.722Z,1.99
2016-12-06T05:27:17.731Z,2
2016-12-06T05:28:17.752Z,2
2016-12-06T05:29:17.751Z,2.07
2016-12-06T05:30:17.824Z,1.94
2016-12-06T05:31:17.774Z,2
2016-12-06T05:32:17.800Z,2.1
2016-12-06T05:33:17.785Z,2.06
2016-12-06T05:34:17.793Z,2.07
2016-12-06T05:35:18.129Z,2.02
2016-12-06T05:36:17.820Z,2.04
2016-12-06T05:37:17.852Z,2
2016-12-06T05:38:17.830Z,2.1
2016-12-06T05:39:17.831Z,1.95
2016-12-06T05:40:17.908Z,2.07
2016-12-06T05:41:17.867Z,2.06
2016-12-06T05:42:17.874Z,2.08
2016-12-06T05:43:17.879Z,2.08
2016-12-06T05:44:17.884Z,2.06
2016-12-06T05:45:17.898Z,2
2016-12-06T05:46:17.902Z,2.06
2016-12-06T05:47:17.909Z,2.06
2016-12-06T05:48:17.918Z,2.06
2016-12-06T05:49:17.924Z,2.08
2016-12-06T05:50:17.998Z,2.06
2016-12-06T05:51:17.951Z,2
2016-12-06T05:52:17.978Z,1.95
2016-12-06T05:53:17.959Z,1.95
2016-12-06T05:54:17.977Z,1.94
2016-12-06T05:55:17.985Z,1.99
2016-12-06T05:56:17.995Z,1.94
2016-12-06T05:57:18.002Z,1.97
2016-12-06T05:58:18.006Z,1.95
2016-12-06T05:59:18.018Z,1.99
2016-12-06T06:00:18.077Z,1.95
2016-12-06T06:01:18.030Z,1.97
2016-12-06T06:02:18.042Z,1.99
2016-12-06T06:03:18.056Z,1.95
2016-12-06T06:04:18.067Z,1.94
2016-12-06T06:05:18.071Z,1.97
2016-12-06T06:06:18.086Z,1.94
2016-12-06T06:07:18.089Z,1.92
2016-12-06T06:08:18.096Z,2.04
2016-12-06T06:09:18.104Z,1.95
2016-12-06T06:10:18.173Z,1.92
2016-12-06T06:11:18.126Z,1.97
2016-12-06T06:12:18.130Z,2.06
2016-12-06T06:13:18.149Z,1.99
2016-12-06T06:14:18.272Z,2.02
2016-12-06T06:15:18.220Z,1.94
2016-12-06T06:16:18.279Z,2.04
2016-12-06T06:17:18.178Z,2
2016-12-06T06:18:18.188Z,2.06
2016-12-06T06:19:18.191Z,1.99
2016-12-06T06:20:18.206Z,2.06
2016-12-06T06:21:18.221Z,2.04
2016-12-06T06:22:18.218Z,2.04
2016-12-06T06:23:18.227Z,2.04
2016-12-06T06:24:18.238Z,2.08
2016-12-06T06:25:18.243Z,2.07
2016-12-06T06:26:18.266Z,2.08
2016-12-06T06:27:18.266Z,2.11
2016-12-06T06:28:18.275Z,2.02
2016-12-06T06:29:18.290Z,2.04
2016-12-06T06:30:18.285Z,2.13
2016-12-06T06:31:18.301Z,2.13
2016-12-06T06:32:18.425Z,2.18
2016-12-06T06:33:18.323Z,2.2
2016-12-06T06:34:18.330Z,2.15
2016-12-06T06:35:18.333Z,2.24
2016-12-06T06:36:18.347Z,2.1
2016-12-06T06:37:18.682Z,2.1
2016-12-06T06:38:18.362Z,2.1
2016-12-06T06:39:18.368Z,2.18
2016-12-06T06:40:18.385Z,2.18
2016-12-06T06:41:18.391Z,2.14
2016-12-06T06:42:18.395Z,2.17
2016-12-06T06:43:18.404Z,2.22
2016-12-06T06:44:18.415Z,2.18
2016-12-06T06:45:18.422Z,2.2
2016-12-06T06:46:18.438Z,2.17
2016-12-06T06:47:18.451Z,2.18
2016-12-06T06:48:18.455Z,2.18
2016-12-06T06:49:18.458Z,2.25
2016-12-06T06:50:18.466Z,2.2
2016-12-06T06:51:18.487Z,2.18
2016-12-06T06:52:18.493Z,2.22
2016-12-06T06:53:18.504Z,2.17
2016-12-06T06:54:18.505Z,2.22
2016-12-06T06:55:18.509Z,2.14
2016-12-06T06:56:18.530Z,2.22
2016-12-06T06:57:18.540Z,2.22
2016-12-06T06:58:18.549Z,2.15
2016-12-06T06:59:18.552Z,2.2
2016-12-06T07:00:18.558Z,2.26
2016-12-06T07:01:18.575Z,2.28
2016-12-06T07:02:18.581Z,2.24
2016-12-06T07:03:18.582Z,2.22
2016-12-06T07:04:18.592Z,2.24
2016-12-06T07:05:18.603Z,2.15
2016-12-06T07:06:18.621Z,2.28
2016-12-06T07:07:18.624Z,2.28
2016-12-06T07:08:18.665Z,2.22
2016-12-06T07:09:18.631Z,2.17
2016-12-06T07:10:18.656Z,2.25
2016-12-06T07:11:18.659Z,2.26
2016-12-06T07:12:18.670Z,2.22
2016-12-06T07:13:18.673Z,2.26
2016-12-06T07:14:18.681Z,2.14
2016-12-06T07:15:18.689Z,2.18
2016-12-06T07:16:18.703Z,2.31
2016-12-06T07:17:18.706Z,2.24
2016-12-06T07:18:18.729Z,2.24
2016-12-06T07:19:19.050Z,2.22
2016-12-06T07:20:18.735Z,2.28
2016-12-06T07:21:19.068Z,2.15
2016-12-06T07:22:18.756Z,2.2
2016-12-06T07:23:18.769Z,2.29
2016-12-06T07:24:18.779Z,2.28
2016-12-06T07:25:18.778Z,2.2
2016-12-06T07:26:18.788Z,2.24
2016-12-06T07:27:18.803Z,2.25
2016-12-06T07:28:18.810Z,2.24
2016-12-06T07:29:18.830Z,2.28
2016-12-06T07:30:18.830Z,2.24
2016-12-06T07:31:18.835Z,2.29
2016-12-06T07:32:18.850Z,2.25
2016-12-06T07:33:18.857Z,2.29
2016-12-06T07:34:18.860Z,2.28
2016-12-06T07:35:18.872Z,2.29
2016-12-06T07:36:18.885Z,2.31
2016-12-06T07:37:18.889Z,2.26
2016-12-06T07:38:18.905Z,2.24
2016-12-06T07:39:18.911Z,2.29
2016-12-06T07:40:18.920Z,2.32
2016-12-06T07:41:18.928Z,2.32
2016-12-06T07:42:18.944Z,2.31
2016-12-06T07:43:18.950Z,2.38
2016-12-06T07:44:18.955Z,2.33
2016-12-06T07:45:18.959Z,2.29
2016-12-06T07:46:18.979Z,2.42
2016-12-06T07:47:18.982Z,2.28
2016-12-06T07:48:18.994Z,2.28
2016-12-06T07:49:19.002Z,2.32
2016-12-06T07:50:19.015Z,2.29
2016-12-06T07:51:19.012Z,2.26
2016-12-06T07:52:19.022Z,2.31
2016-12-06T07:53:19.035Z,2.31
2016-12-06T07:54:19.038Z,2.33
2016-12-06T07:55:19.053Z,2.33
2016-12-06T07:56:19.071Z,2.39
2016-12-06T07:57:19.071Z,2.39
2016-12-06T07:58:19.078Z,2.36
2016-12-06T07:59:19.097Z,2.42
2016-12-06T08:00:19.106Z,2.39
2016-12-06T08:01:19.106Z,2.36
2016-12-06T08:02:19.119Z,2.36
2016-12-06T08:03:19.128Z,2.36
2016-12-06T08:04:19.128Z,2.42
2016-12-06T08:05:19.165Z,2.35
2016-12-06T08:06:19.148Z,2.33
2016-12-06T08:07:19.155Z,2.46
2016-12-06T08:08:19.177Z,2.42
2016-12-06T08:09:19.179Z,2.49
2016-12-06T08:10:19.196Z,2.47
2016-12-06T08:11:19.198Z,2.49
2016-12-06T08:12:19.198Z,2.49
2016-12-06T08:13:19.225Z,2.49
2016-12-06T08:14:19.228Z,2.5
2016-12-06T08:15:19.227Z,2.44
2016-12-06T08:16:19.249Z,2.47
2016-12-06T08:17:19.254Z,2.6
2016-12-06T08:18:19.255Z,2.47
2016-12-06T08:19:19.275Z,2.56
2016-12-06T08:20:19.280Z,2.61
2016-12-06T08:21:19.285Z,2.61
2016-12-06T08:22:19.292Z,2.57
2016-12-06T08:23:19.318Z,2.54
2016-12-06T08:24:19.319Z,2.53
2016-12-06T08:25:19.321Z,2.6
2016-12-06T08:26:19.328Z,2.64
2016-12-06T08:27:19.348Z,2.67
2016-12-06T08:28:19.357Z,2.6
2016-12-06T08:29:19.369Z,2.67
2016-12-06T08:30:19.375Z,2.64
2016-12-06T08:31:19.412Z,2.62
2016-12-06T08:32:19.389Z,2.67
2016-12-06T08:33:19.409Z,2.61
2016-12-06T08:34:19.408Z,2.69
2016-12-06T08:35:19.423Z,2.71
2016-12-06T08:36:19.743Z,2.67
2016-12-06T08:37:19.436Z,2.64
2016-12-06T08:38:19.439Z,2.74
2016-12-06T08:39:19.462Z,2.77
2016-12-06T08:40:19.467Z,2.69
2016-12-06T08:41:19.466Z,2.75
2016-12-06T08:42:19.486Z,2.75
2016-12-06T08:43:19.496Z,2.71
2016-12-06T08:44:19.501Z,2.79
2016-12-06T08:45:19.500Z,2.75
2016-12-06T08:46:19.524Z,2.75
2016-12-06T08:47:19.531Z,2.75
2016-12-06T08:48:19.551Z,2.83
2016-12-06T08:49:19.545Z,2.79
2016-12-06T08:50:19.550Z,2.74
2016-12-06T08:51:19.560Z,2.79
2016-12-06T08:52:19.580Z,2.82
2016-12-06T08:53:19.590Z,2.85
2016-12-06T08:54:19.906Z,2.79
2016-12-06T08:55:19.595Z,2.87
2016-12-06T08:56:19.611Z,2.82
2016-12-06T08:57:19.614Z,2.85
2016-12-06T08:58:19.634Z,2.83
2016-12-06T08:59:19.640Z,2.85
2016-12-06T09:00:19.649Z,2.87
2016-12-06T09:01:19.664Z,2.82
2016-12-06T09:02:19.667Z,2.86
2016-12-06T09:03:19.674Z,2.83
2016-12-06T09:04:19.687Z,2.85
2016-12-06T09:05:19.694Z,2.82
2016-12-06T09:06:19.704Z,2.83
2016-12-06T09:07:19.708Z,2.85
2016-12-06T09:08:19.717Z,2.86
2016-12-06T09:09:19.825Z,2.87
2016-12-06T09:10:19.856Z,2.85
2016-12-06T09:11:19.752Z,2.9
2016-12-06T09:12:19.766Z,2.97
2016-12-06T09:13:19.772Z,2.87
2016-12-06T09:14:19.789Z,2.97
2016-12-06T09:15:19.788Z,2.87
2016-12-06T09:16:19.799Z,2.95
2016-12-06T09:17:19.841Z,2.95
2016-12-06T09:18:19.815Z,2.89
2016-12-06T09:19:19.941Z,3
2016-12-06T09:20:20.149Z,2.98
2016-12-06T09:21:19.838Z,3.01
2016-12-06T09:22:19.858Z,3
2016-12-06T09:23:19.859Z,2.95
2016-12-06T09:24:19.986Z,2.95
2016-12-06T09:25:19.879Z,2.93
2016-12-06T09:26:20.006Z,2.98
2016-12-06T09:27:19.905Z,2.95
2016-12-06T09:28:19.906Z,3
2016-12-06T09:29:20.247Z,3
2016-12-06T09:30:20.047Z,3.04
2016-12-06T09:31:19.937Z,2.98
2016-12-06T09:32:19.937Z,2.95
2016-12-06T09:33:19.951Z,2.95
2016-12-06T09:34:20.053Z,3.01
2016-12-06T09:35:19.987Z,3.03
2016-12-06T09:36:19.983Z,2.98
2016-12-06T09:37:20.071Z,3
2016-12-06T09:38:20.005Z,2.93
2016-12-06T09:39:20.012Z,2.89
2016-12-06T09:40:20.016Z,2.95
2016-12-06T09:41:20.143Z,3.01
2016-12-06T09:42:20.041Z,2.97
2016-12-06T09:43:20.048Z,3.03
2016-12-06T09:44:20.061Z,3.03
2016-12-06T09:45:20.196Z,3.07
2016-12-06T09:46:20.073Z,3.05
2016-12-06T09:47:20.088Z,3.03
2016-12-06T09:48:20.099Z,3.04
2016-12-06T09:49:20.118Z,3.04
2016-12-06T09:50:20.109Z,3.11
2016-12-06T09:51:20.121Z,3.07
2016-12-06T09:52:20.133Z,3.08
2016-12-06T09:53:20.145Z,3.07
2016-12-06T09:54:20.152Z,3.07
2016-12-06T09:55:20.159Z,3.08
2016-12-06T09:56:20.173Z,3.08
2016-12-06T09:57:20.189Z,3.08
2016-12-06T09:58:20.195Z,3.11
2016-12-06T09:59:20.201Z,3.18
2016-12-06T10:00:20.207Z,3.1
2016-12-06T10:01:20.220Z,3.16
2016-12-06T10:02:20.243Z,3.11
2016-12-06T10:03:20.248Z,3.14
2016-12-06T10:04:20.256Z,3.18
2016-12-06T10:05:20.256Z,3.16
2016-12-06T10:06:20.262Z,3.18
2016-12-06T10:07:20.274Z,3.21
2016-12-06T10:08:20.291Z,3.21
2016-12-06T10:09:20.299Z,3.19
2016-12-06T10:10:20.538Z,3.23
2016-12-06T10:11:20.485Z,3.16
2016-12-06T10:12:20.318Z,3.23
2016-12-06T10:13:20.455Z,3.26
2016-12-06T10:14:20.345Z,3.23
2016-12-06T10:15:20.370Z,3.26
2016-12-06T10:16:20.673Z,3.26
2016-12-06T10:17:20.378Z,3.23
2016-12-06T10:18:20.489Z,3.26
2016-12-06T10:19:20.389Z,3.25
2016-12-06T10:20:20.403Z,3.25
2016-12-06T10:21:20.412Z,3.34
2016-12-06T10:22:20.428Z,3.26
2016-12-06T10:23:20.428Z,3.34
2016-12-06T10:24:20.446Z,3.31
2016-12-06T10:25:20.444Z,3.36
2016-12-06T10:26:20.453Z,3.34
2016-12-06T10:27:20.475Z,3.28
2016-12-06T10:28:20.488Z,3.29
2016-12-06T10:29:20.503Z,3.42
2016-12-06T10:30:20.495Z,3.47
2016-12-06T10:31:20.505Z,3.45
2016-12-06T10:32:20.519Z,3.48
2016-12-06T10:33:20.530Z,3.5
2016-12-06T10:34:20.549Z,3.55
2016-12-06T10:35:20.546Z,3.45
2016-12-06T10:36:20.548Z,3.63
2016-12-06T10:37:20.565Z,3.66
2016-12-06T10:38:20.684Z,3.56
2016-12-06T10:39:20.746Z,3.65
2016-12-06T10:40:20.745Z,3.69
2016-12-06T10:41:20.765Z,3.73
2016-12-06T10:42:21.168Z,3.81
2016-12-06T10:43:20.618Z,3.7
2016-12-06T10:44:21.111Z,3.84
2016-12-06T10:45:20.733Z,3.77
2016-12-06T10:46:20.656Z,3.78
2016-12-06T10:47:21.111Z,3.88
2016-12-06T10:48:20.761Z,3.86
2016-12-06T10:49:20.794Z,3.81
2016-12-06T10:50:20.693Z,3.92
2016-12-06T10:51:20.697Z,3.88
2016-12-06T10:52:20.707Z,3.94
2016-12-06T10:53:20.747Z,3.94
2016-12-06T10:54:20.725Z,3.96
2016-12-06T10:55:20.737Z,3.94
2016-12-06T10:56:20.740Z,3.98
2016-12-06T10:57:20.753Z,3.92
2016-12-06T10:58:20.764Z,4.02
2016-12-06T10:59:20.775Z,4.05
2016-12-06T11:00:20.779Z,4.04
2016-12-06T11:01:20.794Z,4.02
2016-12-06T11:02:20.807Z,4.16
2016-12-06T11:03:20.814Z,4.16
2016-12-06T11:04:20.823Z,4.2
2016-12-06T11:05:20.833Z,4.16
2016-12-06T11:06:20.847Z,4.1
2016-12-06T11:07:21.059Z,4.16
2016-12-06T11:09:21.055Z,4.17
2016-12-06T11:10:20.962Z,4.22
2016-12-06T11:11:20.895Z,4.19
2016-12-06T11:12:20.909Z,4.32
2016-12-06T11:13:20.918Z,4.32
2016-12-06T11:14:20.927Z,4.31
2016-12-06T11:15:21.056Z,4.32
2016-12-06T11:16:21.063Z,4.34
2016-12-06T11:17:21.411Z,4.3
2016-12-06T11:18:20.970Z,4.28
2016-12-06T11:19:20.981Z,4.3
2016-12-06T11:20:20.993Z,4.35
2016-12-06T11:21:20.997Z,4.42
2016-12-06T11:22:21.010Z,4.31
2016-12-06T11:23:21.018Z,4.34
2016-12-06T11:24:21.028Z,4.3
2016-12-06T11:25:21.040Z,4.37
2016-12-06T11:26:21.053Z,4.34
2016-12-06T11:27:21.061Z,4.37
2016-12-06T11:28:21.068Z,4.34
2016-12-06T11:29:21.084Z,4.44
2016-12-06T11:30:21.089Z,4.4
2016-12-06T11:31:21.099Z,4.41
2016-12-06T11:32:21.111Z,4.48
2016-12-06T11:33:21.129Z,4.41
2016-12-06T11:34:21.134Z,4.53
2016-12-06T11:35:21.145Z,4.45
2016-12-06T11:36:21.154Z,4.45
2016-12-06T11:37:21.162Z,4.56
2016-12-06T11:38:21.175Z,4.45
2016-12-06T11:39:21.259Z,4.56
2016-12-06T11:40:21.310Z,4.56
2016-12-06T11:41:21.295Z,4.59
2016-12-06T11:42:21.332Z,4.56
2016-12-06T11:43:21.311Z,4.6
2016-12-06T11:44:21.347Z,4.55
2016-12-06T11:45:21.366Z,4.6
2016-12-06T11:46:21.360Z,4.6
2016-12-06T11:47:21.380Z,4.59
2016-12-06T11:48:21.486Z,4.58
2016-12-06T11:49:21.529Z,4.55
2016-12-06T11:50:21.411Z,4.71
2016-12-06T11:51:21.454Z,4.73
2016-12-06T11:52:21.433Z,4.7
2016-12-06T11:53:21.659Z,4.67
2016-12-06T11:54:21.469Z,4.73
2016-12-06T11:55:21.478Z,4.62
2016-12-06T11:56:21.486Z,4.6
2016-12-06T11:57:21.463Z,4.67
2016-12-06T11:58:21.632Z,4.6
2016-12-06T11:59:21.500Z,4.56
2016-12-06T12:00:21.404Z,4.7
2016-12-06T12:01:21.412Z,4.75
2016-12-06T12:02:21.423Z,4.62
2016-12-06T12:03:21.438Z,4.68
2016-12-06T12:04:21.444Z,4.78
2016-12-06T12:05:21.492Z,4.67
2016-12-06T12:06:21.464Z,4.71
2016-12-06T12:07:21.475Z,4.67
2016-12-06T12:08:21.490Z,4.7
2016-12-06T12:09:21.496Z,4.7
2016-12-06T12:10:21.505Z,4.67
2016-12-06T12:11:21.521Z,4.67
2016-12-06T12:12:21.532Z,4.8
2016-12-06T12:13:21.538Z,4.82
2016-12-06T12:14:21.558Z,4.87
2016-12-06T12:15:21.565Z,4.82
2016-12-06T12:16:21.568Z,4.86
2016-12-06T12:17:21.590Z,4.87
2016-12-06T12:18:21.593Z,4.89
2016-12-06T12:19:21.917Z,4.82
2016-12-06T12:20:21.613Z,4.82
2016-12-06T12:21:21.625Z,4.86
2016-12-06T12:22:21.635Z,4.8
2016-12-06T12:23:21.739Z,4.84
2016-12-06T12:24:21.674Z,4.82
2016-12-06T12:25:21.670Z,4.84
2016-12-06T12:26:21.681Z,4.84
2016-12-06T12:27:21.690Z,4.89
2016-12-06T12:28:21.733Z,4.82
2016-12-06T12:29:21.708Z,4.8
2016-12-06T12:30:21.726Z,4.86
2016-12-06T12:31:21.736Z,4.8
2016-12-06T12:32:21.747Z,4.92
2016-12-06T12:33:21.760Z,4.82
2016-12-06T12:34:22.085Z,4.82
2016-12-06T12:35:21.778Z,4.86
2016-12-06T12:36:21.789Z,4.94
2016-12-06T12:37:21.799Z,4.78
2016-12-06T12:38:21.944Z,4.8
2016-12-06T12:39:21.816Z,4.77
2016-12-06T12:40:21.856Z,4.8
2016-12-06T12:41:21.843Z,4.94
2016-12-06T12:42:21.851Z,4.92
2016-12-06T12:43:21.860Z,4.82
2016-12-06T12:44:21.872Z,4.82
2016-12-06T12:45:21.886Z,4.77
2016-12-06T12:46:21.897Z,4.94
2016-12-06T12:47:21.906Z,4.78
2016-12-06T12:48:21.913Z,4.84
2016-12-06T12:49:21.926Z,4.9
2016-12-06T12:50:21.942Z,4.8
2016-12-06T12:51:21.948Z,4.9
2016-12-06T12:52:21.957Z,4.87
2016-12-06T12:53:22.081Z,4.89
2016-12-06T12:54:21.981Z,4.92
2016-12-06T12:55:21.989Z,4.9
2016-12-06T12:56:22.005Z,4.93
2016-12-06T12:57:22.012Z,4.86
2016-12-06T12:58:22.023Z,4.78
2016-12-06T12:59:22.035Z,4.9
2016-12-06T13:00:22.047Z,4.89
2016-12-06T13:01:22.060Z,4.87
2016-12-06T13:02:22.185Z,4.86
2016-12-06T13:03:22.191Z,4.89
2016-12-06T13:04:22.202Z,4.8
2016-12-06T13:05:22.128Z,4.92
2016-12-06T13:06:22.109Z,4.9
2016-12-06T13:07:22.123Z,4.9
2016-12-06T13:08:22.503Z,4.93
2016-12-06T13:09:22.290Z,4.82
2016-12-06T13:10:22.154Z,4.8
2016-12-06T13:11:22.258Z,4.9
2016-12-06T13:12:22.290Z,4.9
2016-12-06T13:13:22.287Z,4.89
2016-12-06T13:14:22.198Z,4.87
2016-12-06T13:15:22.211Z,4.89
2016-12-06T13:16:22.536Z,4.92
2016-12-06T13:17:22.226Z,4.92
2016-12-06T13:18:22.554Z,4.84
2016-12-06T13:19:22.247Z,4.94
2016-12-06T13:20:22.268Z,4.93
2016-12-06T13:21:22.272Z,4.9
2016-12-06T13:22:22.278Z,5.02
2016-12-06T13:23:22.292Z,4.89